createdAt,value
2019-05-28T00:02:13.001Z,82.38
2019-05-28T00:04:42.551Z,82.18
2019-05-28T00:07:12.043Z,83.05
2019-05-28T00:09:41.657Z,82.97
2019-05-28T00:12:11.276Z,82.95
2019-05-28T00:14:40.871Z,82.82
2019-05-28T00:17:10.510Z,82.83
2019-05-28T00:19:40.159Z,83.51
2019-05-28T00:22:09.686Z,82.92
2019-05-28T00:24:39.337Z,83.55
2019-05-28T00:27:08.939Z,84.69
2019-05-28T00:29:38.536Z,85.31
2019-05-28T00:32:08.129Z,86.15
2019-05-28T00:34:37.707Z,85.48
2019-05-28T00:37:07.316Z,86.65
2019-05-28T00:39:36.904Z,86.16
2019-05-28T00:42:06.626Z,85.73
2019-05-28T00:44:36.238Z,84.91
2019-05-28T00:47:05.817Z,84.03
2019-05-28T00:49:35.499Z,84.48
2019-05-28T00:52:05.115Z,83.98
2019-05-28T00:54:34.701Z,83.66
2019-05-28T00:57:04.667Z,83.42
2019-05-28T00:59:34.912Z,83.80
2019-05-28T01:02:04.649Z,83.49
2019-05-28T01:04:34.250Z,83.54
2019-05-28T01:07:03.937Z,83.60
2019-05-28T01:09:33.438Z,83.84
2019-05-28T01:12:03.177Z,83.47
2019-05-28T01:14:32.824Z,83.51
2019-05-28T01:17:02.417Z,83.79
2019-05-28T01:19:31.989Z,83.37
2019-05-28T01:22:01.581Z,82.92
2019-05-28T01:24:31.173Z,84.16
2019-05-28T01:27:00.659Z,85.38
2019-05-28T01:29:30.281Z,86.09
2019-05-28T01:31:59.945Z,87.00
2019-05-28T01:34:29.530Z,88.40
2019-05-28T01:36:59.184Z,87.88
2019-05-28T01:39:28.705Z,87.39
2019-05-28T01:41:58.270Z,88.14
2019-05-28T01:44:27.939Z,87.59
2019-05-28T01:46:57.539Z,87.72
2019-05-28T01:49:27.254Z,87.76
2019-05-28T01:51:56.769Z,87.83
2019-05-28T01:54:26.373Z,88.35
2019-05-28T01:56:55.902Z,88.75
2019-05-28T01:59:25.421Z,88.49
2019-05-28T02:01:54.969Z,88.72
2019-05-28T02:04:24.438Z,89.02
2019-05-28T02:06:53.920Z,89.27
2019-05-28T02:09:23.520Z,88.93
2019-05-28T02:11:53.050Z,88.62
2019-05-28T02:14:22.605Z,88.57
2019-05-28T02:16:52.145Z,88.16
2019-05-28T02:19:21.638Z,88.05
2019-05-28T02:21:51.630Z,88.18
2019-05-28T02:24:21.231Z,88.19
2019-05-28T02:26:50.796Z,87.67
2019-05-28T02:29:20.254Z,87.32
2019-05-28T02:31:49.793Z,87.19
2019-05-28T02:34:19.609Z,88.21
2019-05-28T02:36:49.206Z,88.39
2019-05-28T02:39:18.876Z,89.37
2019-05-28T02:41:48.418Z,90.15
2019-05-28T02:44:17.945Z,89.87
2019-05-28T02:46:47.479Z,89.33
2019-05-28T02:49:17.030Z,89.41
2019-05-28T02:51:47.112Z,89.82
2019-05-28T02:54:17.025Z,90.35
2019-05-28T02:56:47.988Z,90.23
2019-05-28T02:59:18.765Z,88.20
2019-05-28T03:01:51.058Z,86.44
2019-05-28T03:04:23.680Z,87.67
2019-05-28T03:06:54.964Z,88.97
2019-05-28T03:09:26.351Z,89.95
2019-05-28T03:11:55.937Z,89.04
2019-05-28T03:14:25.526Z,87.43
2019-05-28T03:16:58.301Z,86.64
2019-05-28T03:19:29.209Z,87.01
2019-05-28T03:22:01.916Z,86.72
2019-05-28T03:24:33.714Z,86.27
2019-05-28T03:27:03.291Z,86.44
2019-05-28T03:29:32.969Z,86.34
2019-05-28T03:32:07.757Z,85.87
2019-05-28T03:34:34.049Z,87.05
2019-05-28T03:37:04.912Z,86.85
2019-05-28T03:39:37.127Z,86.81
2019-05-28T03:42:06.692Z,88.26
2019-05-28T03:44:36.224Z,88.97
2019-05-28T03:47:05.886Z,88.82
2019-05-28T03:49:35.352Z,88.56
2019-05-28T03:52:05.007Z,87.10
2019-05-28T03:54:34.609Z,85.96
2019-05-28T03:57:04.284Z,84.33
2019-05-28T03:59:33.840Z,83.07
2019-05-28T04:02:03.462Z,82.71
2019-05-28T04:04:32.957Z,82.36
2019-05-28T04:07:02.355Z,82.06
2019-05-28T04:09:33.930Z,81.78
2019-05-28T04:12:03.115Z,81.14
2019-05-28T04:14:32.691Z,79.88
2019-05-28T04:17:02.277Z,79.35
2019-05-28T04:19:31.899Z,78.96
2019-05-28T04:22:01.448Z,79.63
2019-05-28T04:24:30.998Z,80.43
2019-05-28T04:27:00.588Z,81.33
2019-05-28T04:29:30.137Z,81.56
2019-05-28T04:31:59.681Z,81.55
2019-05-28T04:34:29.264Z,80.98
2019-05-28T04:36:58.783Z,80.42
2019-05-28T04:39:28.263Z,79.12
2019-05-28T04:41:57.857Z,78.36
2019-05-28T04:44:27.387Z,77.82
2019-05-28T04:46:56.941Z,78.27
2019-05-28T04:49:26.535Z,77.53
2019-05-28T04:51:56.105Z,77.04
2019-05-28T04:54:25.611Z,77.04
2019-05-28T04:56:55.173Z,76.62
2019-05-28T04:59:24.718Z,76.15
2019-05-28T05:01:54.203Z,75.91
2019-05-28T05:04:23.825Z,74.21
2019-05-28T05:06:53.352Z,73.12
2019-05-28T05:09:22.884Z,70.78
2019-05-28T05:11:52.417Z,71.20
2019-05-28T05:14:21.971Z,69.71
2019-05-28T05:16:51.535Z,68.87
2019-05-28T05:19:21.092Z,68.28
2019-05-28T05:21:50.700Z,68.04
2019-05-28T05:24:20.722Z,67.61
2019-05-28T05:26:52.895Z,66.40
2019-05-28T05:29:22.056Z,64.83
2019-05-28T05:31:51.722Z,62.52
2019-05-28T05:34:21.220Z,62.52
2019-05-28T05:36:50.610Z,61.12
2019-05-28T05:39:20.282Z,61.31
2019-05-28T05:41:49.986Z,61.24
2019-05-28T05:44:19.597Z,59.27
2019-05-28T05:46:49.244Z,58.50
2019-05-28T05:49:18.778Z,57.15
2019-05-28T05:51:48.586Z,57.80
2019-05-28T05:54:18.230Z,58.58
2019-05-28T05:56:47.989Z,58.31
2019-05-28T05:59:17.583Z,57.67
2019-05-28T06:01:47.261Z,56.85
2019-05-28T06:04:16.808Z,58.36
2019-05-28T06:06:46.272Z,56.82
2019-05-28T06:09:15.862Z,57.13
2019-05-28T06:11:45.567Z,56.07
2019-05-28T06:14:15.225Z,56.11
2019-05-28T06:16:44.776Z,55.48
2019-05-28T06:19:14.369Z,53.96
2019-05-28T06:21:43.870Z,55.34
2019-05-28T06:24:13.431Z,55.11
2019-05-28T06:26:43.001Z,54.47
2019-05-28T06:29:12.491Z,54.37
2019-05-28T06:31:42.005Z,54.66
2019-05-28T06:34:11.551Z,54.42
2019-05-28T06:36:41.154Z,55.28
2019-05-28T06:39:10.738Z,55.20
2019-05-28T06:41:40.331Z,55.12
2019-05-28T06:44:09.922Z,54.39
2019-05-28T06:46:39.526Z,54.47
2019-05-28T06:49:09.135Z,55.05
2019-05-28T06:51:38.799Z,52.79
2019-05-28T06:54:11.642Z,53.66
2019-05-28T06:56:39.716Z,52.37
2019-05-28T06:59:09.347Z,52.18
2019-05-28T07:01:39.128Z,50.98
2019-05-28T07:04:14.107Z,52.06
2019-05-28T07:06:40.162Z,51.96
2019-05-28T07:09:09.642Z,52.24
2019-05-28T07:11:39.248Z,50.50
2019-05-28T07:14:08.867Z,50.65
2019-05-28T07:16:51.989Z,50.17
2019-05-28T07:19:23.497Z,51.35
2019-05-28T07:21:41.009Z,51.11
2019-05-28T07:24:10.560Z,50.41
2019-05-28T07:26:40.147Z,52.99
2019-05-28T07:29:09.766Z,53.39
2019-05-28T07:31:39.344Z,52.31
2019-05-28T07:34:08.849Z,51.29
2019-05-28T07:36:38.410Z,50.46
2019-05-28T07:39:11.981Z,49.76
2019-05-28T07:41:40.002Z,50.98
2019-05-28T07:44:09.599Z,50.43
2019-05-28T07:46:39.548Z,50.30
2019-05-28T07:49:09.107Z,49.63
2019-05-28T07:51:38.611Z,50.13
2019-05-28T07:54:08.257Z,51.46
2019-05-28T07:56:37.923Z,50.95
2019-05-28T07:59:07.544Z,51.18
2019-05-28T08:01:37.154Z,49.90
2019-05-28T08:04:06.934Z,50.05
2019-05-28T08:06:51.691Z,48.28
2019-05-28T08:09:08.671Z,48.53
2019-05-28T08:11:38.345Z,46.96
2019-05-28T08:14:08.073Z,48.01
2019-05-28T08:16:50.074Z,47.14
2019-05-28T08:19:09.178Z,47.49
2019-05-28T08:21:38.888Z,45.11
2019-05-28T08:24:08.615Z,45.93
2019-05-28T08:26:38.250Z,45.51
2019-05-28T08:29:07.851Z,43.68
2019-05-28T08:31:37.378Z,42.88
2019-05-28T08:34:06.989Z,42.49
2019-05-28T08:36:36.581Z,42.54
2019-05-28T08:39:08.198Z,42.41
2019-05-28T08:41:37.908Z,42.23
2019-05-28T08:44:07.555Z,43.27
2019-05-28T08:46:37.503Z,43.08
2019-05-28T08:49:07.338Z,41.93
2019-05-28T08:51:36.938Z,41.59
2019-05-28T08:54:06.725Z,39.88
2019-05-28T08:56:36.310Z,41.99
2019-05-28T08:59:05.941Z,42.76
2019-05-28T09:01:35.461Z,42.32
2019-05-28T09:04:05.120Z,41.81
2019-05-28T09:06:34.692Z,41.07
2019-05-28T09:09:05.206Z,41.67
2019-05-28T09:11:34.922Z,41.99
2019-05-28T09:14:04.606Z,41.99
2019-05-28T09:16:34.170Z,41.45
2019-05-28T09:19:03.789Z,40.40
2019-05-28T09:21:33.433Z,38.67
2019-05-28T09:24:03.039Z,39.03
2019-05-28T09:26:32.689Z,39.67
2019-05-28T09:29:02.287Z,40.18
2019-05-28T09:31:32.300Z,39.32
2019-05-28T09:34:01.809Z,39.78
2019-05-28T09:36:31.366Z,38.86
2019-05-28T09:39:00.955Z,38.73
2019-05-28T09:41:30.424Z,39.35
2019-05-28T09:43:59.958Z,41.31
2019-05-28T09:46:29.572Z,42.55
2019-05-28T09:48:59.049Z,42.83
2019-05-28T09:51:29.153Z,40.54
2019-05-28T09:53:58.722Z,42.50
2019-05-28T09:56:32.009Z,42.51
2019-05-28T09:58:59.664Z,42.42
2019-05-28T10:01:29.455Z,41.20
2019-05-28T10:03:59.026Z,41.07
2019-05-28T10:06:36.592Z,39.57
2019-05-28T10:08:59.672Z,39.03
2019-05-28T10:11:29.229Z,38.99
2019-05-28T10:13:58.816Z,40.97
2019-05-28T10:16:28.400Z,39.79
2019-05-28T10:18:58.003Z,39.03
2019-05-28T10:21:27.503Z,38.81
2019-05-28T10:23:57.069Z,39.13
2019-05-28T10:26:26.648Z,39.14
2019-05-28T10:28:56.231Z,38.37
2019-05-28T10:31:26.130Z,37.55
2019-05-28T10:33:55.734Z,39.44
2019-05-28T10:36:35.978Z,38.85
2019-05-28T10:38:56.556Z,38.71
2019-05-28T10:41:26.172Z,38.11
2019-05-28T10:43:55.594Z,37.42
2019-05-28T10:46:25.111Z,38.14
2019-05-28T10:48:54.692Z,37.60
2019-05-28T10:51:24.305Z,37.67
2019-05-28T10:53:53.974Z,37.12
2019-05-28T10:56:23.446Z,37.22
2019-05-28T10:58:53.027Z,36.82
2019-05-28T11:01:22.578Z,37.37
2019-05-28T11:03:52.151Z,37.07
2019-05-28T11:06:21.802Z,37.36
2019-05-28T11:08:51.251Z,37.82
2019-05-28T11:11:20.941Z,38.42
2019-05-28T11:13:53.374Z,38.02
2019-05-28T11:16:21.732Z,36.80
2019-05-28T11:18:51.303Z,39.47
2019-05-28T11:21:20.867Z,39.32
2019-05-28T11:23:50.396Z,40.58
2019-05-28T11:26:20.070Z,40.08
2019-05-28T11:28:49.609Z,40.47
2019-05-28T11:31:19.808Z,39.51
2019-05-28T11:33:49.498Z,39.87
2019-05-28T11:36:19.045Z,40.52
2019-05-28T11:38:48.777Z,40.08
2019-05-28T11:41:18.259Z,39.56
2019-05-28T11:43:47.836Z,40.07
2019-05-28T11:46:17.648Z,38.72
2019-05-28T11:48:47.235Z,38.06
2019-05-28T11:51:16.896Z,38.30
2019-05-28T11:53:46.453Z,39.71
2019-05-28T11:56:16.031Z,40.04
2019-05-28T11:58:45.605Z,39.14
2019-05-28T12:01:33.234Z,38.88
2019-05-28T12:03:46.394Z,40.38
2019-05-28T12:06:16.269Z,41.15
2019-05-28T12:08:45.828Z,40.01
2019-05-28T12:11:15.321Z,39.00
2019-05-28T12:13:44.867Z,39.57
2019-05-28T12:16:14.435Z,40.72
2019-05-28T12:18:43.968Z,40.21
2019-05-28T12:21:13.582Z,41.12
2019-05-28T12:23:43.170Z,41.68
2019-05-28T12:26:12.737Z,40.87
2019-05-28T12:28:42.312Z,41.05
2019-05-28T12:31:11.849Z,41.22
2019-05-28T12:33:41.425Z,41.36
2019-05-28T12:36:11.179Z,42.94
2019-05-28T12:38:40.714Z,44.26
2019-05-28T12:41:10.297Z,44.40
2019-05-28T12:43:39.873Z,43.98
2019-05-28T12:46:09.330Z,44.46
2019-05-28T12:48:38.925Z,45.31
2019-05-28T12:51:08.445Z,45.41
2019-05-28T12:53:49.200Z,46.69
2019-05-28T12:56:09.258Z,46.10
2019-05-28T12:58:42.864Z,45.41
2019-05-28T13:01:10.029Z,45.70
2019-05-28T13:03:39.706Z,45.57
2019-05-28T13:06:09.196Z,46.41
2019-05-28T13:08:38.676Z,46.73
2019-05-28T13:11:08.182Z,46.36
2019-05-28T13:13:37.754Z,44.05
2019-05-28T13:16:08.149Z,42.97
2019-05-28T13:18:37.784Z,42.18
2019-05-28T13:21:07.362Z,42.90
2019-05-28T13:23:36.989Z,43.60
2019-05-28T13:26:06.601Z,44.02
2019-05-28T13:28:36.233Z,43.30
2019-05-28T13:31:05.938Z,44.48
2019-05-28T13:33:35.356Z,45.51
2019-05-28T13:36:05.136Z,45.00
2019-05-28T13:38:34.684Z,44.91
2019-05-28T13:41:04.438Z,45.46
2019-05-28T13:43:34.046Z,45.71
2019-05-28T13:46:03.646Z,45.76
2019-05-28T13:48:33.450Z,45.64
2019-05-28T13:51:03.083Z,46.29
2019-05-28T13:53:32.672Z,45.43
2019-05-28T13:56:02.254Z,46.70
2019-05-28T13:58:31.837Z,46.68
2019-05-28T14:01:01.468Z,45.99
2019-05-28T14:03:31.068Z,46.01
2019-05-28T14:06:00.636Z,45.89
2019-05-28T14:08:45.584Z,46.06
2019-05-28T14:11:01.591Z,45.58
2019-05-28T14:13:32.380Z,45.80
2019-05-28T14:16:04.131Z,45.41
2019-05-28T14:18:33.420Z,45.87
2019-05-28T14:21:03.043Z,46.29
2019-05-28T14:23:32.781Z,45.75
2019-05-28T14:26:02.536Z,46.67
2019-05-28T14:28:32.177Z,45.88
2019-05-28T14:31:01.885Z,45.90
2019-05-28T14:33:31.779Z,45.73
2019-05-28T14:36:01.414Z,45.05
2019-05-28T14:38:31.055Z,44.59
2019-05-28T14:41:01.427Z,45.19
2019-05-28T14:43:31.036Z,45.01
2019-05-28T14:46:00.663Z,43.04
2019-05-28T14:48:30.319Z,44.14
2019-05-28T14:50:59.935Z,44.54
2019-05-28T14:53:30.473Z,45.24
2019-05-28T14:56:00.383Z,46.13
2019-05-28T14:58:30.207Z,46.46
2019-05-28T15:00:59.817Z,47.40
2019-05-28T15:03:29.456Z,47.23
2019-05-28T15:05:59.035Z,47.44
2019-05-28T15:08:28.682Z,47.68
2019-05-28T15:10:58.306Z,47.52
2019-05-28T15:13:28.211Z,47.19
2019-05-28T15:15:57.876Z,38.75
2019-05-28T15:18:27.633Z,33.45
2019-05-28T15:20:57.450Z,39.34
2019-05-28T15:23:27.044Z,44.43
2019-05-28T15:25:56.656Z,45.26
2019-05-28T15:28:26.366Z,37.33
2019-05-28T15:30:55.994Z,31.19
2019-05-28T15:33:25.596Z,29.76
2019-05-28T15:35:56.244Z,29.90
2019-05-28T15:38:26.087Z,30.45
2019-05-28T15:40:55.768Z,30.43
2019-05-28T15:43:25.451Z,31.39
2019-05-28T15:45:55.392Z,30.74
2019-05-28T15:48:25.175Z,30.49
2019-05-28T15:50:54.805Z,30.17
2019-05-28T15:53:24.552Z,30.01
2019-05-28T15:55:54.172Z,30.58
2019-05-28T15:58:24.194Z,31.01
2019-05-28T16:00:53.825Z,31.02
2019-05-28T16:03:23.410Z,30.49
2019-05-28T16:05:53.014Z,31.41
2019-05-28T16:08:22.609Z,31.75
2019-05-28T16:10:52.205Z,31.55
2019-05-28T16:13:21.839Z,31.96
2019-05-28T16:15:51.640Z,32.20
2019-05-28T16:18:21.273Z,32.00
2019-05-28T16:20:50.872Z,31.72
2019-05-28T16:23:20.432Z,31.99
2019-05-28T16:25:50.050Z,32.12
2019-05-28T16:28:19.629Z,32.69
2019-05-28T16:30:49.265Z,33.06
2019-05-28T16:33:18.891Z,33.09
2019-05-28T16:35:49.121Z,33.41
2019-05-28T16:38:18.764Z,33.49
2019-05-28T16:40:48.537Z,33.81
2019-05-28T16:43:18.159Z,33.67
2019-05-28T16:45:47.772Z,33.82
2019-05-28T16:48:17.426Z,34.32
2019-05-28T16:50:47.005Z,34.20
2019-05-28T16:53:16.836Z,34.51
2019-05-28T16:55:46.478Z,34.92
2019-05-28T16:58:16.219Z,35.25
2019-05-28T17:00:45.955Z,35.23
2019-05-28T17:03:15.593Z,35.33
2019-05-28T17:05:44.965Z,35.49
2019-05-28T17:08:14.289Z,35.75
2019-05-28T17:10:43.857Z,35.82
2019-05-28T17:13:13.241Z,36.31
2019-05-28T17:15:42.606Z,36.88
2019-05-28T17:18:12.005Z,36.55
2019-05-28T17:20:41.603Z,37.14
2019-05-28T17:23:11.328Z,37.18
2019-05-28T17:25:40.685Z,37.24
2019-05-28T17:28:10.932Z,37.65
2019-05-28T17:30:41.277Z,37.75
2019-05-28T17:33:10.762Z,38.04
2019-05-28T17:35:40.177Z,38.29
2019-05-28T17:38:09.796Z,38.54
2019-05-28T17:40:47.941Z,38.67
2019-05-28T17:43:10.528Z,38.87
2019-05-28T17:45:39.948Z,38.99
2019-05-28T17:48:09.576Z,38.86
2019-05-28T17:50:39.614Z,39.38
2019-05-28T17:53:09.053Z,39.61
2019-05-28T17:55:38.578Z,39.98
2019-05-28T17:58:08.139Z,39.93
2019-05-28T18:00:37.548Z,39.96
2019-05-28T18:03:07.631Z,40.25
2019-05-28T18:05:36.969Z,40.09
2019-05-28T18:08:06.654Z,40.08
2019-05-28T18:10:36.030Z,39.89
2019-05-28T18:13:05.406Z,40.14
2019-05-28T18:15:34.753Z,40.57
2019-05-28T18:18:04.582Z,40.70
2019-05-28T18:20:34.041Z,40.74
2019-05-28T18:23:03.451Z,40.93
2019-05-28T18:25:32.792Z,40.99
2019-05-28T18:28:02.347Z,41.09
2019-05-28T18:30:32.172Z,40.92
2019-05-28T18:33:01.675Z,40.77
2019-05-28T18:35:31.772Z,41.00
2019-05-28T18:38:04.389Z,40.93
2019-05-28T18:40:32.522Z,40.46
2019-05-28T18:43:02.025Z,41.09
2019-05-28T18:45:31.475Z,41.09
2019-05-28T18:48:01.016Z,42.33
2019-05-28T18:50:31.677Z,41.59
2019-05-28T18:53:01.057Z,41.59
2019-05-28T18:55:30.550Z,42.34
2019-05-28T18:57:59.956Z,43.09
2019-05-28T19:00:29.336Z,43.09
2019-05-28T19:02:58.793Z,42.18
2019-05-28T19:05:28.218Z,41.72
2019-05-28T19:07:58.026Z,41.35
2019-05-28T19:10:27.785Z,41.45
2019-05-28T19:12:58.305Z,41.91
2019-05-28T19:15:27.902Z,42.96
2019-05-28T19:17:58.977Z,43.91
2019-05-28T19:20:28.430Z,45.08
2019-05-28T19:22:57.814Z,46.08
2019-05-28T19:25:27.531Z,46.93
2019-05-28T19:27:57.438Z,47.66
2019-05-28T19:30:34.383Z,48.28
2019-05-28T19:33:05.432Z,48.59
2019-05-28T19:35:35.364Z,49.16
2019-05-28T19:38:05.330Z,49.91
2019-05-28T19:40:37.043Z,50.48
2019-05-28T19:43:07.003Z,51.11
2019-05-28T19:45:37.468Z,51.80
2019-05-28T19:48:07.664Z,52.21
2019-05-28T19:50:40.085Z,52.77
2019-05-28T19:53:09.589Z,53.00
2019-05-28T19:55:39.281Z,53.52
2019-05-28T19:58:08.842Z,54.03
2019-05-28T20:00:38.281Z,54.56
2019-05-28T20:03:10.724Z,54.91
2019-05-28T20:05:40.150Z,55.43
2019-05-28T20:08:09.772Z,55.98
2019-05-28T20:10:39.752Z,56.29
2019-05-28T20:13:13.701Z,56.63
2019-05-28T20:15:43.009Z,57.12
2019-05-28T20:18:25.831Z,57.70
2019-05-28T20:20:43.823Z,57.89
2019-05-28T20:23:13.309Z,58.00
2019-05-28T20:25:42.662Z,58.32
2019-05-28T20:28:12.312Z,58.58
2019-05-28T20:30:41.628Z,58.81
2019-05-28T20:33:11.029Z,59.09
2019-05-28T20:35:40.399Z,59.41
2019-05-28T20:38:12.427Z,59.89
2019-05-28T20:40:40.790Z,60.26
2019-05-28T20:43:10.414Z,60.20
2019-05-28T20:45:39.801Z,60.46
2019-05-28T20:48:09.158Z,60.61
2019-05-28T20:50:38.539Z,60.95
2019-05-28T20:53:07.969Z,61.27
2019-05-28T20:55:37.290Z,61.70
2019-05-28T20:58:06.722Z,61.98
2019-05-28T21:00:36.047Z,62.14
2019-05-28T21:03:05.430Z,62.35
2019-05-28T21:05:34.862Z,62.48
2019-05-28T21:08:04.198Z,62.53
2019-05-28T21:10:33.929Z,62.47
2019-05-28T21:13:03.672Z,62.49
2019-05-28T21:15:33.015Z,62.87
2019-05-28T21:18:02.470Z,62.99
2019-05-28T21:20:31.864Z,62.89
2019-05-28T21:23:01.310Z,62.90
2019-05-28T21:25:30.669Z,63.02
2019-05-28T21:28:00.683Z,63.26
2019-05-28T21:30:30.276Z,63.29
2019-05-28T21:33:00.806Z,63.55
2019-05-28T21:35:30.345Z,63.74
2019-05-28T21:37:59.731Z,63.66
2019-05-28T21:40:29.080Z,63.78
2019-05-28T21:43:04.723Z,63.67
2019-05-28T21:45:29.559Z,63.78
2019-05-28T21:47:58.934Z,63.62
2019-05-28T21:50:28.311Z,63.85
2019-05-28T21:52:58.960Z,64.13
2019-05-28T21:55:28.426Z,64.20
2019-05-28T21:57:57.824Z,64.25
2019-05-28T22:00:49.882Z,64.31
2019-05-28T22:03:19.311Z,64.46
2019-05-28T22:05:48.619Z,64.46
2019-05-28T22:08:17.976Z,64.56
2019-05-28T22:10:47.691Z,64.53
2019-05-28T22:13:22.142Z,64.73
2019-05-28T22:15:48.211Z,64.72
2019-05-28T22:18:17.632Z,64.75
2019-05-28T22:20:47.213Z,64.70
2019-05-28T22:23:16.982Z,64.89
2019-05-28T22:25:46.518Z,65.13
2019-05-28T22:28:15.990Z,65.27
2019-05-28T22:30:45.502Z,65.46
2019-05-28T22:33:14.888Z,65.35
2019-05-28T22:35:45.359Z,65.58
2019-05-28T22:38:14.879Z,65.76
2019-05-28T22:40:44.266Z,65.69
2019-05-28T22:43:13.603Z,65.66
2019-05-28T22:45:43.550Z,65.94
2019-05-28T22:48:16.433Z,66.33
2019-05-28T22:50:44.418Z,66.09
2019-05-28T22:53:13.815Z,66.24
2019-05-28T22:55:43.127Z,66.39
2019-05-28T22:58:12.472Z,66.71
2019-05-28T23:00:41.883Z,66.71
2019-05-28T23:03:11.256Z,67.07
2019-05-28T23:05:40.806Z,67.39
2019-05-28T23:08:10.249Z,67.34
2019-05-28T23:10:39.589Z,67.30
2019-05-28T23:13:09.188Z,67.36
2019-05-28T23:15:38.588Z,67.46
2019-05-28T23:18:09.274Z,67.43
2019-05-28T23:20:39.148Z,67.37
2019-05-28T23:23:09.367Z,67.67
2019-05-28T23:25:38.915Z,67.75
2019-05-28T23:28:08.253Z,67.66
2019-05-28T23:30:37.611Z,67.67
2019-05-28T23:33:09.929Z,67.76
2019-05-28T23:35:38.002Z,67.57
2019-05-28T23:38:07.363Z,67.94
2019-05-28T23:40:36.737Z,68.12
2019-05-28T23:43:07.347Z,68.28
2019-05-28T23:45:36.761Z,68.08
2019-05-28T23:48:10.754Z,68.54
2019-05-28T23:50:37.204Z,68.81
2019-05-28T23:53:07.645Z,68.83
2019-05-28T23:55:37.121Z,69.20
2019-05-28T23:58:07.608Z,69.25
